Time;durP1;ratioP1;P1;durP2;ratioP2;P2;SDS_P1;SDS_P2;PMS_P1;PMS_P2;Temp;Humidity;BMP_temperature;BMP_pressure;BME280_temperature;BME280_humidity;BME280_pressure;Samples;Min_cycle;Max_cycle;Signal;HPM_P1;HPM_P2
2023/10/17 06:18:42;;;;;;;;;;;;;;;;;;4950685;28;19933;-43
2023/10/17 06:21:35;;;;;;;;;;;;;;;;;;4950425;28;19922;-42
2023/10/17 06:24:17;;;;;;;;;;;;;;;;;;5020750;28;19914;-43
2023/10/17 06:26:46;;;;;;;;;;;;;;;;;;4968492;28;19945;-44
2023/10/17 06:34:16;;;;;;;;;;;;;;;;;;4962999;28;20455;-46
2023/10/17 06:36:42;;;;;;;;;;;;;;;;;;4968566;28;20002;-47
2023/10/17 06:39:17;;;;;;;;;;;;;;;;;;5030654;28;19914;-43
2023/10/17 06:41:44;;;;;;;;;;;;;;;;;;4966445;28;19923;-44
2023/10/17 06:44:11;;;;;;;;;;;;;;;;;;4965023;28;19914;-43
2023/10/17 06:46:40;;;;;;;;;;;;;;;;;;5031746;28;19921;-43
2023/10/17 06:49:08;;;;;;;;;;;;;;;;;;4969392;28;19952;-44
2023/10/17 06:51:39;;;;;;;;;;;;;;;;;;5035566;28;19914;-42
2023/10/17 06:54:09;;;;;;;;;;;;;;;;;;4969450;28;19910;-43
2023/10/17 06:56:44;;;;;;;;;;;;;;;;;;4966532;28;19918;-44
2023/10/17 06:59:24;;;;;;;;;;;;;;;;;;4969537;28;19910;-44
2023/10/17 07:01:52;;;;;;;;;;;;;;;;;;4968884;28;19922;-43
2023/10/17 07:04:20;;;;;;;;;;;;;;;;;;4969585;28;19914;-43
2023/10/17 07:06:47;;;;;;;;;;;;;;;;;;5036151;28;19910;-44
2023/10/17 07:09:18;;;;;;;;;;;;;;;;;;4969700;28;19937;-43
2023/10/17 07:11:47;;;;;;;;;;;;;;;;;;4965475;28;20388;-43
2023/10/17 07:14:22;;;;;;;;;;;;;;;;;;4960034;28;20410;-44
2023/10/17 07:16:57;;;;;;;;;;;;;;;;;;4959453;28;20566;-44
2023/10/17 07:22:11;;;;;;;;;;;;;;;;;;4968847;28;20001;-44
2023/10/17 07:24:43;;;;;;;;;;;;;;;;;;4971834;28;19997;-45
2023/10/17 07:27:11;;;;;;;;;;;;;;;;;;4972910;28;19921;-46
2023/10/17 07:29:37;;;;;;;;;;;;;;;;;;5040103;28;20376;-44
2023/10/17 07:32:09;;;;;;;;;;;;;;;;;;4973313;28;19963;-44
2023/10/17 07:34:35;;;;;;;;;;;;;;;;;;4972947;28;20526;-43
2023/10/17 07:40:02;;;;;;;;;;;;;;;;;;5048848;28;19988;-43
2023/10/17 07:42:40;;;;;;;;;;;;;;;;;;5054792;28;19912;-44
2023/10/17 07:45:13;;;;;;;;;;;;;;;;;;4994242;28;19914;-44
2023/10/17 07:47:41;;;;;;;;;;;;;;;;;;4971656;28;19959;-47
2023/10/17 07:50:12;;;;;;;;;;;;;;;;;;4972420;28;19917;-43
2023/10/17 07:52:38;;;;;;;;;;;;;;;;;;4971846;28;19949;-44
2023/10/17 07:55:34;;;;;;;;;;;;;;;;;;4972539;28;19910;-45
2023/10/17 07:58:06;;;;;;;;;;;;;;;;;;4973385;28;19925;-44
2023/10/17 08:00:38;;;;;;;;;;;;;;;;;;4972141;28;20334;-44
2023/10/17 08:03:09;;;;;;;;;;;;;;;;;;4971978;28;19954;-45
2023/10/17 08:05:44;;;;;;;;;;;;;;;;;;4970459;28;19911;-44
2023/10/17 08:08:14;;;;;;;;;;;;;;;;;;4971706;28;19918;-43
2023/10/17 08:10:45;;;;;;;;;;;;;;;;;;4972464;28;19955;-44
2023/10/17 08:13:12;;;;;;;;;;;;;;;;;;4972621;28;19910;-43
2023/10/17 08:15:51;;;;;;;;;;;;;;;;;;4970422;28;19910;-42
2023/10/17 08:18:25;;;;;;;;;;;;;;;;;;4972310;28;19921;-44
2023/10/17 08:23:34;;;;;;;;;;;;;;;;;;4972073;28;19932;-45
2023/10/17 08:26:00;;;;;;;;;;;;;;;;;;4972042;28;19953;-43
2023/10/17 08:31:24;;;;;;;;;;;;;;;;;;4970120;28;19910;-45
2023/10/17 08:33:57;;;;;;;;;;;;;;;;;;4952992;28;19942;-44
2023/10/17 08:36:23;;;;;;;;;;;;;;;;;;4952133;29;19957;-44
2023/10/17 08:38:49;;;;;;;;;;;;;;;;;;4962885;28;19910;-44
2023/10/17 08:41:15;;;;;;;;;;;;;;;;;;4971965;28;19916;-47
2023/10/17 08:43:41;;;;;;;;;;;;;;;;;;5038958;28;19910;-43
2023/10/17 08:46:10;;;;;;;;;;;;;;;;;;4971373;28;19922;-44
2023/10/17 08:48:37;;;;;;;;;;;;;;;;;;5035516;28;19914;-43
2023/10/17 08:51:07;;;;;;;;;;;;;;;;;;4972195;28;20280;-43
2023/10/17 08:53:33;;;;;;;;;;;;;;;;;;4971939;28;19991;-43
2023/10/17 08:55:59;;;;;;;;;;;;;;;;;;4971599;28;19979;-47
2023/10/17 08:58:32;;;;;;;;;;;;;;;;;;4967605;28;19922;-44
2023/10/17 09:01:07;;;;;;;;;;;;;;;;;;5038832;28;20463;-45
2023/10/17 09:03:35;;;;;;;;;;;;;;;;;;4972094;28;19910;-43
2023/10/17 09:11:40;;;;;;;;;;;;;;;;;;4986840;28;19915;-43
2023/10/17 09:14:24;;;;;;;;;;;;;;;;;;4971973;28;20391;-44
2023/10/17 09:16:50;;;;;;;;;;;;;;;;;;5029057;28;20009;-44
2023/10/17 09:19:16;;;;;;;;;;;;;;;;;;4971432;28;19926;-45
2023/10/17 09:21:43;;;;;;;;;;;;;;;;;;4971660;28;19910;-44
2023/10/17 09:24:09;;;;;;;;;;;;;;;;;;4971283;28;19989;-43
2023/10/17 09:26:36;;;;;;;;;;;;;;;;;;5037648;28;20017;-45
2023/10/17 09:29:02;;;;;;;;;;;;;;;;;;4970616;28;19945;-45
2023/10/17 09:31:29;;;;;;;;;;;;;;;;;;4970585;28;19918;-43
2023/10/17 09:33:56;;;;;;;;;;;;;;;;;;5036751;28;19916;-44
2023/10/17 09:36:22;;;;;;;;;;;;;;;;;;5031589;28;20321;-43
2023/10/17 09:38:48;;;;;;;;;;;;;;;;;;4964236;28;19977;-45
2023/10/17 09:41:17;;;;;;;;;;;;;;;;;;4968478;28;19929;-44
2023/10/17 09:43:43;;;;;;;;;;;;;;;;;;4967075;28;19921;-45
2023/10/17 09:46:09;;;;;;;;;;;;;;;;;;4967937;28;19910;-44
2023/10/17 09:48:35;;;;;;;;;;;;;;;;;;4965285;28;19914;-46
2023/10/17 09:51:01;;;;;;;;;;;;;;;;;;4962802;28;19915;-44
2023/10/17 09:53:29;;;;;;;;;;;;;;;;;;4959939;28;20008;-44
2023/10/17 09:55:55;;;;;;;;;;;;;;;;;;4955368;28;20008;-45
2023/10/17 09:58:21;;;;;;;;;;;;;;;;;;5032405;28;19922;-44
2023/10/17 10:00:47;;;;;;;;;;;;;;;;;;4968524;28;20004;-45
2023/10/17 10:03:13;;;;;;;;;;;;;;;;;;4968764;28;20288;-44
2023/10/17 10:05:39;;;;;;;;;;;;;;;;;;5032477;28;19960;-46
2023/10/17 10:08:05;;;;;;;;;;;;;;;;;;4968641;28;19916;-44
2023/10/17 10:10:31;;;;;;;;;;;;;;;;;;4968503;28;19932;-44
2023/10/17 10:12:57;;;;;;;;;;;;;;;;;;4966017;28;19926;-44
2023/10/17 10:15:23;;;;;;;;;;;;;;;;;;5034870;28;19910;-44
2023/10/17 10:17:50;;;;;;;;;;;;;;;;;;5034354;28;19919;-44
2023/10/17 10:20:15;;;;;;;;;;;;;;;;;;4968506;28;19959;-45
2023/10/17 10:22:42;;;;;;;;;;;;;;;;;;4968572;28;19911;-45
2023/10/17 10:25:08;;;;;;;;;;;;;;;;;;4968352;28;19917;-43
2023/10/17 10:27:34;;;;;;;;;;;;;;;;;;4965459;28;19922;-44
2023/10/17 10:30:00;;;;;;;;;;;;;;;;;;4965726;28;20304;-43
2023/10/17 10:32:26;;;;;;;;;;;;;;;;;;4966652;28;19918;-43
2023/10/17 10:34:52;;;;;;;;;;;;;;;;;;4968483;28;20388;-44
2023/10/17 10:37:17;;;;;;;;;;;;;;;;;;4967207;28;19918;-45
2023/10/17 10:39:44;;;;;;;;;;;;;;;;;;4967052;28;19918;-44
2023/10/17 10:42:10;;;;;;;;;;;;;;;;;;4967691;28;19921;-43
2023/10/17 10:44:37;;;;;;;;;;;;;;;;;;4969796;28;19910;-45
2023/10/17 10:47:03;;;;;;;;;;;;;;;;;;4969249;28;19921;-45
2023/10/17 10:49:31;;;;;;;;;;;;;;;;;;4966570;28;19915;-47
2023/10/17 10:51:58;;;;;;;;;;;;;;;;;;5032157;28;19918;-44
2023/10/17 10:54:23;;;;;;;;;;;;;;;;;;5032710;28;20339;-44
2023/10/17 10:56:49;;;;;;;;;;;;;;;;;;5030524;28;19933;-45
2023/10/17 10:59:15;;;;;;;;;;;;;;;;;;4966153;28;19925;-45
2023/10/17 11:01:41;;;;;;;;;;;;;;;;;;5032134;28;19921;-45
2023/10/17 11:04:07;;;;;;;;;;;;;;;;;;4967252;28;20292;-43
2023/10/17 11:06:36;;;;;;;;;;;;;;;;;;4968092;28;19914;-44
2023/10/17 11:09:02;;;;;;;;;;;;;;;;;;4966361;28;19918;-43
2023/10/17 11:11:30;;;;;;;;;;;;;;;;;;4963832;28;20743;-43
2023/10/17 11:13:56;;;;;;;;;;;;;;;;;;4968169;28;19925;-45
2023/10/17 11:16:24;;;;;;;;;;;;;;;;;;4961854;28;19924;-45
2023/10/17 11:18:50;;;;;;;;;;;;;;;;;;4964275;28;20423;-48
2023/10/17 11:21:16;;;;;;;;;;;;;;;;;;5031464;28;19956;-44
2023/10/17 11:23:46;;;;;;;;;;;;;;;;;;4960894;28;19914;-43
2023/10/17 11:26:12;;;;;;;;;;;;;;;;;;4965508;28;19952;-42
2023/10/17 11:28:42;;;;;;;;;;;;;;;;;;4963762;28;20145;-44
2023/10/17 11:31:12;;;;;;;;;;;;;;;;;;4960532;28;20644;-44
2023/10/17 11:33:45;;;;;;;;;;;;;;;;;;4961136;28;19919;-44
2023/10/17 11:36:16;;;;;;;;;;;;;;;;;;4964597;28;19914;-45
2023/10/17 11:38:43;;;;;;;;;;;;;;;;;;4965359;28;19917;-43
2023/10/17 11:41:09;;;;;;;;;;;;;;;;;;5032483;28;19936;-47
2023/10/17 11:43:35;;;;;;;;;;;;;;;;;;4966881;28;19911;-45
2023/10/17 11:46:01;;;;;;;;;;;;;;;;;;4966831;28;19956;-44
2023/10/17 11:48:27;;;;;;;;;;;;;;;;;;4962374;28;19975;-44
2023/10/17 11:50:53;;;;;;;;;;;;;;;;;;4951970;28;19917;-43
2023/10/17 11:53:19;;;;;;;;;;;;;;;;;;4966701;28;19910;-43
2023/10/17 11:55:45;;;;;;;;;;;;;;;;;;4966765;28;20365;-43
2023/10/17 11:58:11;;;;;;;;;;;;;;;;;;5033669;28;19921;-44
2023/10/17 12:00:37;;;;;;;;;;;;;;;;;;4966549;28;19910;-43
2023/10/17 12:03:03;;;;;;;;;;;;;;;;;;4966459;28;20000;-44
2023/10/17 12:05:31;;;;;;;;;;;;;;;;;;4965717;28;19911;-43
2023/10/17 12:07:59;;;;;;;;;;;;;;;;;;4966719;28;19964;-43
2023/10/17 12:10:25;;;;;;;;;;;;;;;;;;4966650;28;19914;-45
2023/10/17 12:13:04;;;;;;;;;;;;;;;;;;4969145;28;20304;-43
2023/10/17 12:15:30;;;;;;;;;;;;;;;;;;4967543;28;20621;-43
2023/10/17 12:17:56;;;;;;;;;;;;;;;;;;4967002;28;19922;-42
2023/10/17 12:20:25;;;;;;;;;;;;;;;;;;5036590;28;19929;-43
2023/10/17 12:22:52;;;;;;;;;;;;;;;;;;4970020;28;20388;-43
2023/10/17 12:25:22;;;;;;;;;;;;;;;;;;4969907;28;19910;-42
2023/10/17 12:27:49;;;;;;;;;;;;;;;;;;4968505;28;19917;-43
2023/10/17 12:30:22;;;;;;;;;;;;;;;;;;5036744;28;20300;-42
2023/10/17 12:32:48;;;;;;;;;;;;;;;;;;4969791;28;19963;-43
2023/10/17 12:35:16;;;;;;;;;;;;;;;;;;4968742;28;19948;-43
2023/10/17 12:37:45;;;;;;;;;;;;;;;;;;4968338;28;20365;-42
2023/10/17 12:40:18;;;;;;;;;;;;;;;;;;4964399;28;19914;-43
2023/10/17 12:42:44;;;;;;;;;;;;;;;;;;4969525;28;19953;-43
2023/10/17 12:45:11;;;;;;;;;;;;;;;;;;5036534;28;19999;-45
2023/10/17 12:47:38;;;;;;;;;;;;;;;;;;5035669;28;20018;-43
2023/10/17 12:50:04;;;;;;;;;;;;;;;;;;4969467;28;20300;-42
2023/10/17 12:52:30;;;;;;;;;;;;;;;;;;4969174;28;19920;-43
2023/10/17 12:54:56;;;;;;;;;;;;;;;;;;5036175;28;19910;-43
2023/10/17 12:57:22;;;;;;;;;;;;;;;;;;4968084;28;19921;-43
2023/10/17 12:59:48;;;;;;;;;;;;;;;;;;4968191;28;20411;-42
2023/10/17 13:02:15;;;;;;;;;;;;;;;;;;4968695;28;19916;-43
2023/10/17 13:04:41;;;;;;;;;;;;;;;;;;5035729;28;19907;-43
2023/10/17 13:07:08;;;;;;;;;;;;;;;;;;4967971;28;19921;-45
2023/10/17 13:09:34;;;;;;;;;;;;;;;;;;4968083;28;20318;-43
2023/10/17 13:12:00;;;;;;;;;;;;;;;;;;4967703;28;20004;-43
2023/10/17 13:14:26;;;;;;;;;;;;;;;;;;4966649;28;20356;-45
2023/10/17 13:16:52;;;;;;;;;;;;;;;;;;4968887;28;19969;-43
2023/10/17 13:19:19;;;;;;;;;;;;;;;;;;4967666;28;19967;-43
2023/10/17 13:21:45;;;;;;;;;;;;;;;;;;4967539;28;19972;-44
2023/10/17 13:24:13;;;;;;;;;;;;;;;;;;4968234;28;19910;-43
2023/10/17 13:26:39;;;;;;;;;;;;;;;;;;4967233;28;20047;-44
2023/10/17 13:29:05;;;;;;;;;;;;;;;;;;4967750;28;19952;-43
2023/10/17 13:31:31;;;;;;;;;;;;;;;;;;4967780;28;20292;-43
2023/10/17 13:33:58;;;;;;;;;;;;;;;;;;4967697;28;20381;-45
2023/10/17 13:36:24;;;;;;;;;;;;;;;;;;4967701;28;19997;-42
2023/10/17 13:38:50;;;;;;;;;;;;;;;;;;4968035;28;20411;-42
2023/10/17 13:41:16;;;;;;;;;;;;;;;;;;4967310;28;19922;-44
2023/10/17 13:43:47;;;;;;;;;;;;;;;;;;5034499;28;19933;-43
2023/10/17 13:46:13;;;;;;;;;;;;;;;;;;4967406;28;20116;-43
2023/10/17 13:48:40;;;;;;;;;;;;;;;;;;4967370;28;19914;-44
2023/10/17 13:51:06;;;;;;;;;;;;;;;;;;4967268;28;19949;-43
2023/10/17 13:53:32;;;;;;;;;;;;;;;;;;4967426;28;20320;-43
2023/10/17 13:55:58;;;;;;;;;;;;;;;;;;4967238;28;19914;-44
2023/10/17 13:58:24;;;;;;;;;;;;;;;;;;4967457;28;19954;-42
2023/10/17 14:00:54;;;;;;;;;;;;;;;;;;4967474;28;19918;-44
2023/10/17 14:03:22;;;;;;;;;;;;;;;;;;4967037;28;19985;-43
2023/10/17 14:05:47;;;;;;;;;;;;;;;;;;4967260;28;19911;-43
2023/10/17 14:08:13;;;;;;;;;;;;;;;;;;4966524;28;19933;-45
2023/10/17 14:10:42;;;;;;;;;;;;;;;;;;4967164;28;19921;-45
2023/10/17 14:13:08;;;;;;;;;;;;;;;;;;4966637;28;19914;-44
2023/10/17 14:15:34;;;;;;;;;;;;;;;;;;4967021;28;19918;-44
2023/10/17 14:18:09;;;;;;;;;;;;;;;;;;4966755;28;19914;-45
2023/10/17 14:20:53;;;;;;;;;;;;;;;;;;5031815;28;20229;-43
2023/10/17 14:23:26;;;;;;;;;;;;;;;;;;4966757;28;19917;-43
2023/10/17 14:26:03;;;;;;;;;;;;;;;;;;4967547;28;19910;-44
2023/10/17 14:28:29;;;;;;;;;;;;;;;;;;4966608;28;19910;-46
2023/10/17 14:30:55;;;;;;;;;;;;;;;;;;4967374;28;19914;-43
2023/10/17 14:33:21;;;;;;;;;;;;;;;;;;4964300;28;19914;-45
2023/10/17 14:35:48;;;;;;;;;;;;;;;;;;4966084;28;19918;-44
2023/10/17 14:38:14;;;;;;;;;;;;;;;;;;4966504;28;19967;-46
2023/10/17 14:40:41;;;;;;;;;;;;;;;;;;4960573;28;19922;-43
2023/10/17 14:43:09;;;;;;;;;;;;;;;;;;4966413;28;19910;-51
2023/10/17 14:45:35;;;;;;;;;;;;;;;;;;4965465;28;19921;-51
2023/10/17 14:48:01;;;;;;;;;;;;;;;;;;4965310;28;19918;-50
2023/10/17 14:50:27;;;;;;;;;;;;;;;;;;4966008;28;20396;-49
2023/10/17 14:52:53;;;;;;;;;;;;;;;;;;4967039;28;20005;-52
2023/10/17 14:55:23;;;;;;;;;;;;;;;;;;4966628;28;20396;-48
2023/10/17 14:57:49;;;;;;;;;;;;;;;;;;4964192;28;19948;-49
2023/10/17 15:00:15;;;;;;;;;;;;;;;;;;4966446;28;20399;-51
2023/10/17 15:02:44;;;;;;;;;;;;;;;;;;4964945;28;19918;-50
2023/10/17 15:05:13;;;;;;;;;;;;;;;;;;4966311;28;19911;-48
2023/10/17 15:07:39;;;;;;;;;;;;;;;;;;4965538;28;19914;-50
2023/10/17 15:10:11;;;;;;;;;;;;;;;;;;4958585;28;20377;-48
2023/10/17 15:12:37;;;;;;;;;;;;;;;;;;4946702;28;20005;-50
2023/10/17 15:15:03;;;;;;;;;;;;;;;;;;4958555;28;19972;-48
2023/10/17 15:17:31;;;;;;;;;;;;;;;;;;4965217;28;20956;-52
2023/10/17 15:19:57;;;;;;;;;;;;;;;;;;4961783;28;20020;-47
2023/10/17 15:22:23;;;;;;;;;;;;;;;;;;4967705;28;20005;-49
2023/10/17 15:24:49;;;;;;;;;;;;;;;;;;4965512;28;20288;-51
2023/10/17 15:27:15;;;;;;;;;;;;;;;;;;4967325;28;19964;-48
2023/10/17 15:29:40;;;;;;;;;;;;;;;;;;4963772;28;19967;-49
2023/10/17 15:32:06;;;;;;;;;;;;;;;;;;4967309;28;20222;-51
2023/10/17 15:34:32;;;;;;;;;;;;;;;;;;4967977;28;19949;-51
2023/10/17 15:37:00;;;;;;;;;;;;;;;;;;4967491;28;19922;-48
2023/10/17 15:39:29;;;;;;;;;;;;;;;;;;4962561;28;19915;-49
2023/10/17 15:41:55;;;;;;;;;;;;;;;;;;4949477;28;19961;-52
2023/10/17 15:44:21;;;;;;;;;;;;;;;;;;4965700;28;20342;-50
2023/10/17 15:46:48;;;;;;;;;;;;;;;;;;4968812;28;19918;-48
2023/10/17 15:49:14;;;;;;;;;;;;;;;;;;4970914;28;20373;-48
2023/10/17 15:51:40;;;;;;;;;;;;;;;;;;4970662;28;19914;-52
2023/10/17 15:54:06;;;;;;;;;;;;;;;;;;4970855;28;19933;-49
2023/10/17 15:56:32;;;;;;;;;;;;;;;;;;4965451;28;20009;-50
2023/10/17 15:58:58;;;;;;;;;;;;;;;;;;5037389;28;19919;-48
2023/10/17 16:01:23;;;;;;;;;;;;;;;;;;4969209;28;19914;-50
2023/10/17 16:03:49;;;;;;;;;;;;;;;;;;5036698;28;19984;-48
2023/10/17 16:06:15;;;;;;;;;;;;;;;;;;4969329;28;19914;-47
2023/10/17 16:08:44;;;;;;;;;;;;;;;;;;4962852;28;19922;-47
2023/10/17 16:11:11;;;;;;;;;;;;;;;;;;4964074;28;19921;-52
2023/10/17 16:13:38;;;;;;;;;;;;;;;;;;4970061;28;19914;-49
2023/10/17 16:16:06;;;;;;;;;;;;;;;;;;4972117;28;19914;-52
2023/10/17 16:18:32;;;;;;;;;;;;;;;;;;4969530;28;19918;-49
2023/10/17 16:20:58;;;;;;;;;;;;;;;;;;4968932;28;19933;-43
2023/10/17 16:23:24;;;;;;;;;;;;;;;;;;4969474;28;19921;-42
2023/10/17 16:25:50;;;;;;;;;;;;;;;;;;4970943;28;19910;-43
2023/10/17 16:28:16;;;;;;;;;;;;;;;;;;5036790;28;19945;-43
2023/10/17 16:30:42;;;;;;;;;;;;;;;;;;4971848;28;19914;-43
2023/10/17 16:33:14;;;;;;;;;;;;;;;;;;5039070;28;20323;-43
2023/10/17 16:35:42;;;;;;;;;;;;;;;;;;4972215;28;19922;-42
2023/10/17 16:38:10;;;;;;;;;;;;;;;;;;5049070;28;19929;-42
2023/10/17 16:40:35;;;;;;;;;;;;;;;;;;4967978;28;19921;-42
2023/10/17 16:43:02;;;;;;;;;;;;;;;;;;5036788;28;19997;-42
2023/10/17 16:45:29;;;;;;;;;;;;;;;;;;4964078;28;19918;-43
2023/10/17 16:47:56;;;;;;;;;;;;;;;;;;4969297;28;19911;-42
2023/10/17 16:50:24;;;;;;;;;;;;;;;;;;4970250;28;19996;-43
2023/10/17 16:52:50;;;;;;;;;;;;;;;;;;4970747;28;19968;-42
2023/10/17 16:55:16;;;;;;;;;;;;;;;;;;5036194;28;19915;-43
2023/10/17 16:57:42;;;;;;;;;;;;;;;;;;4969636;28;19926;-42
2023/10/17 17:00:13;;;;;;;;;;;;;;;;;;4958167;28;19921;-42
2023/10/17 17:02:39;;;;;;;;;;;;;;;;;;4966256;28;19918;-42
2023/10/17 17:05:09;;;;;;;;;;;;;;;;;;4969764;28;19910;-43
2023/10/17 17:07:35;;;;;;;;;;;;;;;;;;4966997;28;19921;-45
2023/10/17 17:10:01;;;;;;;;;;;;;;;;;;4967657;28;19922;-43
2023/10/17 17:12:27;;;;;;;;;;;;;;;;;;4964847;28;19921;-43
2023/10/17 17:14:53;;;;;;;;;;;;;;;;;;4961448;28;19923;-43
2023/10/17 17:17:19;;;;;;;;;;;;;;;;;;4948336;29;19918;-44
2023/10/17 17:19:45;;;;;;;;;;;;;;;;;;5025876;28;19926;-44
2023/10/17 17:22:10;;;;;;;;;;;;;;;;;;4967738;28;20292;-46
2023/10/17 17:24:37;;;;;;;;;;;;;;;;;;5000238;28;19923;-43
2023/10/17 17:27:03;;;;;;;;;;;;;;;;;;4966764;28;19935;-43
2023/10/17 17:29:30;;;;;;;;;;;;;;;;;;4966713;28;20008;-44
2023/10/17 17:31:56;;;;;;;;;;;;;;;;;;4967551;28;20295;-43
2023/10/17 17:34:22;;;;;;;;;;;;;;;;;;4965658;28;19921;-44
2023/10/17 17:36:48;;;;;;;;;;;;;;;;;;4964811;28;20001;-43
2023/10/17 17:39:21;;;;;;;;;;;;;;;;;;4964675;28;19914;-43
2023/10/17 17:41:47;;;;;;;;;;;;;;;;;;4963946;28;19921;-44
2023/10/17 17:44:13;;;;;;;;;;;;;;;;;;5030185;28;19914;-44
2023/10/17 17:46:39;;;;;;;;;;;;;;;;;;4963782;28;19987;-45
2023/10/17 17:49:05;;;;;;;;;;;;;;;;;;4966084;28;19921;-43
2023/10/17 17:51:31;;;;;;;;;;;;;;;;;;4962618;28;19918;-44
2023/10/17 17:53:57;;;;;;;;;;;;;;;;;;4964938;28;20415;-44
2023/10/17 17:56:23;;;;;;;;;;;;;;;;;;4960125;28;19990;-45
2023/10/17 17:58:51;;;;;;;;;;;;;;;;;;4961687;28;19922;-44
2023/10/17 18:01:17;;;;;;;;;;;;;;;;;;4958565;28;19922;-44
2023/10/17 18:03:43;;;;;;;;;;;;;;;;;;5021372;28;19915;-44
2023/10/17 18:06:09;;;;;;;;;;;;;;;;;;4960553;28;20013;-44
2023/10/17 18:08:35;;;;;;;;;;;;;;;;;;4960252;28;19959;-44
2023/10/17 18:11:03;;;;;;;;;;;;;;;;;;5024629;28;20404;-46
2023/10/17 18:13:28;;;;;;;;;;;;;;;;;;4960012;28;19926;-44
2023/10/17 18:15:56;;;;;;;;;;;;;;;;;;4959622;28;19922;-45
2023/10/17 18:18:22;;;;;;;;;;;;;;;;;;4958623;28;20423;-45
2023/10/17 18:20:47;;;;;;;;;;;;;;;;;;4957696;28;19955;-44
2023/10/17 18:23:16;;;;;;;;;;;;;;;;;;4957948;28;19914;-43
2023/10/17 18:25:44;;;;;;;;;;;;;;;;;;4961553;28;20308;-43
2023/10/17 18:28:10;;;;;;;;;;;;;;;;;;4961297;28;19922;-44
2023/10/17 18:30:36;;;;;;;;;;;;;;;;;;5025932;28;19921;-44
2023/10/17 18:33:02;;;;;;;;;;;;;;;;;;4963048;28;19914;-43
2023/10/17 18:35:28;;;;;;;;;;;;;;;;;;4961849;28;19941;-47
2023/10/17 18:37:54;;;;;;;;;;;;;;;;;;4963048;28;19968;-43
2023/10/17 18:40:20;;;;;;;;;;;;;;;;;;4965260;28;19915;-45
2023/10/17 18:42:48;;;;;;;;;;;;;;;;;;4992164;28;19919;-44
2023/10/17 18:45:15;;;;;;;;;;;;;;;;;;5025199;28;19991;-45
2023/10/17 18:47:41;;;;;;;;;;;;;;;;;;4963964;28;19914;-42
2023/10/17 18:50:09;;;;;;;;;;;;;;;;;;4966712;28;19950;-44
2023/10/17 18:52:36;;;;;;;;;;;;;;;;;;5033192;28;19917;-49
2023/10/17 18:55:09;;;;;;;;;;;;;;;;;;4962870;28;19926;-51
2023/10/17 18:57:34;;;;;;;;;;;;;;;;;;4962878;28;20008;-52
2023/10/17 19:00:05;;;;;;;;;;;;;;;;;;4966225;28;20012;-48
2023/10/17 19:02:31;;;;;;;;;;;;;;;;;;4965880;28;19918;-52
2023/10/17 19:04:58;;;;;;;;;;;;;;;;;;4963235;28;20396;-50
2023/10/17 19:07:24;;;;;;;;;;;;;;;;;;4962511;28;19920;-50
2023/10/17 19:09:50;;;;;;;;;;;;;;;;;;4961977;28;20396;-50
2023/10/17 19:12:16;;;;;;;;;;;;;;;;;;4965160;28;19956;-49
2023/10/17 19:14:42;;;;;;;;;;;;;;;;;;4964727;28;20384;-49
2023/10/17 19:17:08;;;;;;;;;;;;;;;;;;4963892;28;19922;-44
2023/10/17 19:19:34;;;;;;;;;;;;;;;;;;5032287;28;19918;-44
2023/10/17 19:22:05;;;;;;;;;;;;;;;;;;5037042;28;19968;-45
2023/10/17 19:24:32;;;;;;;;;;;;;;;;;;4964521;28;19914;-45
2023/10/17 19:26:58;;;;;;;;;;;;;;;;;;5037507;28;19914;-44
2023/10/17 19:29:24;;;;;;;;;;;;;;;;;;4969435;28;19914;-43
2023/10/17 19:31:51;;;;;;;;;;;;;;;;;;4968628;28;20423;-43
2023/10/17 19:34:17;;;;;;;;;;;;;;;;;;4971798;28;19946;-44
2023/10/17 19:36:44;;;;;;;;;;;;;;;;;;4965975;28;20388;-43
2023/10/17 19:39:10;;;;;;;;;;;;;;;;;;4969667;28;19914;-45
2023/10/17 19:41:36;;;;;;;;;;;;;;;;;;4969938;28;20027;-45
2023/10/17 19:44:02;;;;;;;;;;;;;;;;;;4968078;28;19914;-44
2023/10/17 19:46:28;;;;;;;;;;;;;;;;;;4969945;28;19980;-45
2023/10/17 19:48:53;;;;;;;;;;;;;;;;;;5037582;28;19917;-44
2023/10/17 19:51:19;;;;;;;;;;;;;;;;;;4967612;28;19918;-44
2023/10/17 19:53:48;;;;;;;;;;;;;;;;;;4966752;28;19921;-47
2023/10/17 19:56:13;;;;;;;;;;;;;;;;;;4969898;28;19922;-45
2023/10/17 19:58:39;;;;;;;;;;;;;;;;;;4968033;28;19922;-48
2023/10/17 20:01:05;;;;;;;;;;;;;;;;;;4966452;28;19922;-51
2023/10/17 20:03:31;;;;;;;;;;;;;;;;;;4967212;28;19953;-49
2023/10/17 20:05:57;;;;;;;;;;;;;;;;;;4970662;28;19922;-46
2023/10/17 20:08:23;;;;;;;;;;;;;;;;;;4966850;28;20308;-43
2023/10/17 20:10:49;;;;;;;;;;;;;;;;;;4968490;28;19953;-49
2023/10/17 20:13:15;;;;;;;;;;;;;;;;;;4969751;28;20331;-49
2023/10/17 20:15:41;;;;;;;;;;;;;;;;;;4971197;28;19914;-50
2023/10/17 20:18:07;;;;;;;;;;;;;;;;;;5032386;28;19981;-50
2023/10/17 20:20:33;;;;;;;;;;;;;;;;;;4966435;28;19918;-49
2023/10/17 20:22:58;;;;;;;;;;;;;;;;;;4978542;28;19922;-51
2023/10/17 20:25:24;;;;;;;;;;;;;;;;;;5018094;28;19973;-49
2023/10/17 20:27:52;;;;;;;;;;;;;;;;;;4968333;28;19920;-51
2023/10/17 20:30:20;;;;;;;;;;;;;;;;;;4959619;28;19918;-48
2023/10/17 20:32:46;;;;;;;;;;;;;;;;;;4962285;28;19914;-50
2023/10/17 20:35:14;;;;;;;;;;;;;;;;;;4965985;28;19915;-47
2023/10/17 20:37:39;;;;;;;;;;;;;;;;;;4966627;28;19962;-47
2023/10/17 20:40:12;;;;;;;;;;;;;;;;;;4966022;28;20355;-47
2023/10/17 20:42:38;;;;;;;;;;;;;;;;;;4964070;28;19922;-47
2023/10/17 20:45:04;;;;;;;;;;;;;;;;;;4965337;28;19914;-47
2023/10/17 20:47:30;;;;;;;;;;;;;;;;;;4967032;28;19949;-48
2023/10/17 20:49:56;;;;;;;;;;;;;;;;;;4965861;28;19940;-47
2023/10/17 20:52:23;;;;;;;;;;;;;;;;;;4965816;28;19944;-48
2023/10/17 20:54:49;;;;;;;;;;;;;;;;;;4966048;28;20381;-47
2023/10/17 20:57:14;;;;;;;;;;;;;;;;;;4967650;28;19932;-48
2023/10/17 20:59:40;;;;;;;;;;;;;;;;;;4966756;28;20427;-51
2023/10/17 21:02:06;;;;;;;;;;;;;;;;;;5039678;28;19955;-52
2023/10/17 21:04:32;;;;;;;;;;;;;;;;;;4964648;28;19914;-49
2023/10/17 21:06:59;;;;;;;;;;;;;;;;;;4966104;28;19960;-49
2023/10/17 21:09:24;;;;;;;;;;;;;;;;;;4961346;28;19921;-51
2023/10/17 21:11:50;;;;;;;;;;;;;;;;;;4946787;28;19918;-50
2023/10/17 21:14:16;;;;;;;;;;;;;;;;;;4949249;28;19911;-48
2023/10/17 21:16:42;;;;;;;;;;;;;;;;;;4966096;28;19915;-50
2023/10/17 21:19:09;;;;;;;;;;;;;;;;;;5033613;28;19922;-48
2023/10/17 21:21:37;;;;;;;;;;;;;;;;;;4967257;28;19917;-49
2023/10/17 21:24:03;;;;;;;;;;;;;;;;;;5033435;28;19917;-48
2023/10/17 21:26:29;;;;;;;;;;;;;;;;;;4966510;28;19917;-50
2023/10/17 21:28:55;;;;;;;;;;;;;;;;;;4966422;28;20272;-48
2023/10/17 21:31:21;;;;;;;;;;;;;;;;;;4966458;28;19910;-51
2023/10/17 21:33:47;;;;;;;;;;;;;;;;;;4966553;28;19953;-49
2023/10/17 21:36:14;;;;;;;;;;;;;;;;;;4966356;28;19985;-49
2023/10/17 21:38:40;;;;;;;;;;;;;;;;;;4966307;28;19914;-51
2023/10/17 21:41:07;;;;;;;;;;;;;;;;;;4967023;28;20346;-52
2023/10/17 21:43:33;;;;;;;;;;;;;;;;;;4965311;28;20384;-49
2023/10/17 21:45:59;;;;;;;;;;;;;;;;;;4966150;28;19910;-48
2023/10/17 21:48:25;;;;;;;;;;;;;;;;;;4967875;28;19914;-48
2023/10/17 21:50:51;;;;;;;;;;;;;;;;;;4966030;28;19924;-48
2023/10/17 21:53:17;;;;;;;;;;;;;;;;;;4966019;28;20273;-50
2023/10/17 21:55:43;;;;;;;;;;;;;;;;;;4966063;28;19921;-49
2023/10/17 21:58:09;;;;;;;;;;;;;;;;;;4966628;28;19914;-50
2023/10/17 22:00:39;;;;;;;;;;;;;;;;;;4966836;28;19964;-50
2023/10/17 22:03:05;;;;;;;;;;;;;;;;;;4966170;28;20388;-50
2023/10/17 22:05:31;;;;;;;;;;;;;;;;;;4965769;28;19937;-48
2023/10/17 22:07:57;;;;;;;;;;;;;;;;;;4965593;28;19914;-49
2023/10/17 22:10:23;;;;;;;;;;;;;;;;;;4991061;28;19999;-50
2023/10/17 22:12:49;;;;;;;;;;;;;;;;;;5048328;28;19910;-48
2023/10/17 22:15:17;;;;;;;;;;;;;;;;;;4983930;28;19914;-50
2023/10/17 22:17:43;;;;;;;;;;;;;;;;;;4965611;28;20414;-51
2023/10/17 22:20:09;;;;;;;;;;;;;;;;;;4965910;28;19972;-51
2023/10/17 22:22:35;;;;;;;;;;;;;;;;;;4968196;28;19963;-49
2023/10/17 22:25:02;;;;;;;;;;;;;;;;;;4968259;28;19988;-51
2023/10/17 22:27:28;;;;;;;;;;;;;;;;;;4967801;28;19975;-47
2023/10/17 22:29:55;;;;;;;;;;;;;;;;;;4967347;28;19967;-49
2023/10/17 22:32:21;;;;;;;;;;;;;;;;;;4966818;28;20009;-48
2023/10/17 22:34:47;;;;;;;;;;;;;;;;;;4968221;28;19999;-49
2023/10/17 22:37:12;;;;;;;;;;;;;;;;;;4968077;28;20462;-51
2023/10/17 22:39:38;;;;;;;;;;;;;;;;;;4965838;28;19925;-50
2023/10/17 22:42:04;;;;;;;;;;;;;;;;;;4967881;28;19971;-52
2023/10/17 22:44:30;;;;;;;;;;;;;;;;;;4968053;28;19917;-51
2023/10/17 22:46:56;;;;;;;;;;;;;;;;;;4967773;28;20387;-47
2023/10/17 22:49:22;;;;;;;;;;;;;;;;;;4966402;28;19921;-48
2023/10/17 22:51:48;;;;;;;;;;;;;;;;;;4967784;28;19914;-47
2023/10/17 22:54:14;;;;;;;;;;;;;;;;;;4967007;28;19911;-49
2023/10/17 22:56:40;;;;;;;;;;;;;;;;;;5034872;28;19910;-52
2023/10/17 22:59:06;;;;;;;;;;;;;;;;;;4966619;28;20009;-51
